createdAt,value
2022-10-21T00:01:19.551Z,99978.94
2022-10-21T00:05:21.457Z,99982.78
2022-10-21T00:09:23.355Z,99982.34
2022-10-21T00:13:26.052Z,99996.69
2022-10-21T00:17:27.954Z,99987.47
2022-10-21T00:21:29.842Z,99977.91
2022-10-21T00:25:31.690Z,99975.66
2022-10-21T00:29:33.570Z,99971.97
2022-10-21T00:33:35.498Z,99962.66
2022-10-21T00:37:37.620Z,99959.66
2022-10-21T00:41:39.713Z,99952.47
2022-10-21T00:45:41.648Z,99957.84
2022-10-21T00:50:00.451Z,99971.16
2022-10-21T00:54:02.265Z,99966.81
2022-10-21T00:58:04.144Z,99935.59
2022-10-21T01:02:06.009Z,99916.66
2022-10-21T01:06:10.901Z,99911.41
2022-10-21T01:10:12.822Z,99902.78
2022-10-21T01:14:45.489Z,99901.28
2022-10-21T01:18:55.525Z,99885.06
2022-10-21T01:23:33.986Z,99900.78
2022-10-21T01:28:45.273Z,99890.41
2022-10-21T01:33:12.709Z,99860.06
2022-10-21T01:37:25.110Z,99862.00
2022-10-21T01:42:05.131Z,99857.81
2022-10-21T01:46:16.845Z,99851.28
2022-10-21T01:50:25.625Z,99819.56
2022-10-21T01:54:50.877Z,99809.13
2022-10-21T01:58:52.754Z,99811.25
2022-10-21T02:03:00.789Z,99824.50
2022-10-21T02:07:08.790Z,99812.63
2022-10-21T02:11:13.153Z,99805.44
2022-10-21T02:15:21.832Z,99809.06
2022-10-21T02:19:32.835Z,99793.72
2022-10-21T02:23:53.466Z,99803.19
2022-10-21T02:27:55.421Z,99798.59
2022-10-21T02:32:13.485Z,99809.28
2022-10-21T02:36:49.947Z,99813.41
2022-10-21T02:41:02.564Z,99796.06
2022-10-21T02:45:04.760Z,99806.91
2022-10-21T02:49:09.505Z,99814.47
2022-10-21T02:53:11.395Z,99814.34
2022-10-21T02:57:13.268Z,99809.13
2022-10-21T03:01:15.132Z,99802.00
2022-10-21T03:05:17.190Z,99798.19
2022-10-21T03:09:19.062Z,99776.03
2022-10-21T03:13:22.299Z,99780.22
2022-10-21T03:17:25.310Z,99784.38
2022-10-21T03:21:27.643Z,99792.09
2022-10-21T03:25:34.294Z,99807.59
2022-10-21T03:29:37.609Z,99802.91
2022-10-21T03:33:39.397Z,99797.00
2022-10-21T03:37:41.190Z,99788.94
2022-10-21T03:41:42.954Z,99762.28
2022-10-21T03:45:44.961Z,99772.72
2022-10-21T03:49:46.773Z,99782.84
2022-10-21T03:53:48.708Z,99789.56
2022-10-21T03:57:51.006Z,99794.78
2022-10-21T04:01:52.925Z,99751.78
2022-10-21T04:05:55.524Z,99767.53
2022-10-21T04:09:59.465Z,99760.88
2022-10-21T04:14:01.402Z,99753.19
2022-10-21T04:18:06.653Z,99768.34
2022-10-21T04:22:09.430Z,99766.19
2022-10-21T04:26:11.419Z,99732.72
2022-10-21T04:30:13.433Z,99746.31
2022-10-21T04:34:15.386Z,99753.72
2022-10-21T04:38:24.383Z,99733.38
2022-10-21T04:42:38.586Z,99731.03
2022-10-21T04:46:40.533Z,99725.00
2022-10-21T04:51:18.415Z,99724.88
2022-10-21T04:55:27.722Z,99723.97
2022-10-21T04:59:48.597Z,99720.88
2022-10-21T05:09:25.414Z,99702.13
2022-10-21T05:13:31.314Z,99685.25
2022-10-21T05:17:33.668Z,99710.75
2022-10-21T05:53:54.451Z,99701.16
2022-10-21T05:57:59.218Z,99684.78
2022-10-21T06:02:01.653Z,99695.25
2022-10-21T06:06:50.325Z,99697.78
2022-10-21T06:16:24.391Z,99684.34
2022-10-21T06:20:28.916Z,99708.94
2022-10-21T06:24:31.078Z,99688.72
2022-10-21T06:28:44.649Z,99681.09
2022-10-21T06:32:46.656Z,99697.53
2022-10-21T06:36:48.570Z,99700.84
2022-10-21T06:40:50.479Z,99712.94
2022-10-21T06:44:54.463Z,99705.13
2022-10-21T06:49:08.947Z,99694.25
2022-10-21T06:53:10.908Z,99713.66
2022-10-21T06:57:13.257Z,99728.66
2022-10-21T07:01:41.774Z,99701.75
2022-10-21T07:06:05.757Z,99710.44
2022-10-21T07:10:10.685Z,99708.50
2022-10-21T07:14:15.058Z,99708.66
2022-10-21T07:18:30.725Z,99692.31
2022-10-21T07:22:35.907Z,99682.19
2022-10-21T07:31:05.834Z,99682.69
2022-10-21T07:35:17.075Z,99686.63
2022-10-21T07:39:26.303Z,99702.16
2022-10-21T07:44:00.308Z,99667.09
2022-10-21T07:48:34.628Z,99676.25
2022-10-21T07:52:41.785Z,99667.75
2022-10-21T07:56:51.405Z,99667.53
2022-10-21T08:00:59.834Z,99659.56
2022-10-21T08:05:04.531Z,99667.94
2022-10-21T08:09:33.436Z,99658.13
2022-10-21T08:13:38.777Z,99658.59
2022-10-21T08:17:40.745Z,99664.19
2022-10-21T08:21:48.188Z,99640.75
2022-10-21T08:25:54.730Z,99655.97
2022-10-21T08:29:56.713Z,99638.97
2022-10-21T08:34:07.318Z,99650.09
2022-10-21T08:38:10.688Z,99632.03
2022-10-21T08:42:17.062Z,99642.34
2022-10-21T08:46:27.349Z,99634.16
2022-10-21T08:50:38.048Z,99626.03
2022-10-21T08:55:01.649Z,99620.16
2022-10-21T08:59:03.498Z,99601.31
2022-10-21T09:03:25.493Z,99599.47
2022-10-21T09:07:36.234Z,99606.69
2022-10-21T09:11:58.033Z,99601.22
2022-10-21T09:17:23.274Z,99603.03
2022-10-21T09:22:34.414Z,99607.69
2022-10-21T09:26:42.155Z,99585.34
2022-10-21T09:31:09.686Z,99591.59
2022-10-21T09:35:34.554Z,99579.06
2022-10-21T09:39:47.412Z,99567.88
2022-10-21T09:44:00.867Z,99576.31
2022-10-21T09:48:18.556Z,99566.75
2022-10-21T09:52:40.117Z,99573.84
2022-10-21T09:57:19.626Z,99573.78
2022-10-21T10:01:27.472Z,99575.97
2022-10-21T10:06:05.481Z,99570.72
2022-10-21T10:10:32.228Z,99570.03
2022-10-21T10:14:40.185Z,99573.50
2022-10-21T10:18:51.761Z,99572.72
2022-10-21T10:23:00.181Z,99559.88
2022-10-21T10:27:07.688Z,99561.09
2022-10-21T10:31:24.012Z,99557.19
2022-10-21T10:35:32.892Z,99545.63
2022-10-21T10:39:36.894Z,99562.69
2022-10-21T10:43:58.129Z,99567.50
2022-10-21T10:48:03.427Z,99546.41
2022-10-21T10:52:11.470Z,99548.47
2022-10-21T10:56:15.570Z,99548.44
2022-10-21T11:00:22.444Z,99521.25
2022-10-21T11:04:40.149Z,99540.44
2022-10-21T11:08:53.328Z,99524.66
2022-10-21T11:13:03.706Z,99529.72
2022-10-21T11:17:53.314Z,99537.09
2022-10-21T11:23:15.706Z,99537.59
2022-10-21T11:27:30.516Z,99502.47
2022-10-21T11:32:41.718Z,99507.56
2022-10-21T11:37:53.139Z,99520.03
2022-10-21T11:42:05.110Z,99512.19
2022-10-21T11:47:11.575Z,99502.94
2022-10-21T11:51:37.569Z,99507.00
2022-10-21T11:56:12.969Z,99509.84
2022-10-21T12:00:20.611Z,99490.50
2022-10-21T12:04:28.264Z,99491.06
2022-10-21T12:08:49.497Z,99503.34
2022-10-21T12:12:57.297Z,99480.56
2022-10-21T12:17:09.377Z,99522.44
2022-10-21T12:21:18.123Z,99523.97
2022-10-21T12:25:56.280Z,99524.38
2022-10-21T12:30:46.365Z,99529.53
2022-10-21T12:34:49.078Z,99529.91
2022-10-21T12:38:58.390Z,99527.56
2022-10-21T12:43:22.511Z,99538.53
2022-10-21T12:47:32.031Z,99552.34
2022-10-21T12:51:34.350Z,99559.44
2022-10-21T12:55:40.797Z,99540.84
2022-10-21T12:59:43.040Z,99566.75
2022-10-21T13:03:52.860Z,99570.63
2022-10-21T13:08:46.150Z,99569.22
2022-10-21T13:12:48.147Z,99591.59
2022-10-21T13:17:30.911Z,99609.88
2022-10-21T13:21:39.796Z,99602.47
2022-10-21T13:36:42.820Z,99614.38
2022-10-21T13:40:56.523Z,99630.94
2022-10-21T13:45:35.243Z,99630.28
2022-10-21T13:49:37.182Z,99640.41
2022-10-21T13:53:43.585Z,99638.44
2022-10-21T13:57:48.431Z,99660.00
2022-10-21T14:01:56.330Z,99652.66
2022-10-21T14:06:08.821Z,99656.19
2022-10-21T14:10:32.332Z,99665.41
2022-10-21T14:14:47.314Z,99663.25
2022-10-21T14:18:49.399Z,99656.56
2022-10-21T14:22:51.469Z,99670.13
2022-10-21T14:26:53.616Z,99643.94
2022-10-21T14:30:55.553Z,99663.78
2022-10-21T14:35:16.128Z,99661.97
2022-10-21T14:39:19.754Z,99673.91
2022-10-21T14:43:37.485Z,99657.69
2022-10-21T14:47:42.602Z,99660.34
2022-10-21T14:52:51.648Z,99675.59
2022-10-21T14:56:53.629Z,99676.16
2022-10-21T15:06:13.521Z,99687.84
2022-10-21T15:10:24.352Z,99702.13
2022-10-21T15:14:31.996Z,99713.78
2022-10-21T15:18:44.021Z,99715.03
2022-10-21T15:22:48.350Z,99693.88
2022-10-21T15:26:52.240Z,99673.69
2022-10-21T15:31:09.406Z,99680.72
2022-10-21T15:35:22.282Z,99667.91
2022-10-21T15:39:24.307Z,99667.06
2022-10-21T15:43:31.603Z,99655.56
2022-10-21T15:47:33.663Z,99661.97
2022-10-21T15:52:03.882Z,99641.53
2022-10-21T15:56:06.143Z,99647.94
2022-10-21T16:00:28.594Z,99650.38
2022-10-21T16:04:30.470Z,99662.06
2022-10-21T16:08:32.735Z,99670.59
2022-10-21T16:12:34.741Z,99665.72
2022-10-21T16:16:37.831Z,99679.56
2022-10-21T16:20:40.029Z,99681.09
2022-10-21T16:24:42.319Z,99706.53
2022-10-21T16:28:44.376Z,99700.47
2022-10-21T16:32:46.621Z,99682.34
2022-10-21T16:36:48.838Z,99683.34
2022-10-21T16:40:50.903Z,99677.13
2022-10-21T16:44:52.927Z,99690.81
2022-10-21T16:48:54.950Z,99714.25
2022-10-21T16:57:40.547Z,99686.69
2022-10-21T17:01:47.973Z,99699.72
2022-10-21T17:06:01.562Z,99682.03
2022-10-21T17:10:24.342Z,99683.56
2022-10-21T17:14:32.575Z,99684.16
2022-10-21T17:18:47.424Z,99669.00
2022-10-21T17:24:00.900Z,99671.16
2022-10-21T17:27:53.647Z,99669.28
2022-10-21T17:31:58.012Z,99673.22
2022-10-21T17:36:00.719Z,99677.50
2022-10-21T17:40:08.832Z,99674.94
2022-10-21T17:44:15.682Z,99668.69
2022-10-21T17:48:20.703Z,99668.81
2022-10-21T17:52:31.896Z,99676.59
2022-10-21T17:56:34.454Z,99679.38
2022-10-21T18:00:43.812Z,99650.75
2022-10-21T18:04:52.433Z,99674.44
2022-10-21T18:08:55.039Z,99652.75
2022-10-21T18:13:00.024Z,99648.59
2022-10-21T18:17:06.306Z,99634.59
2022-10-21T19:32:08.792Z,99629.28
2022-10-21T19:36:11.361Z,99627.06
2022-10-21T19:40:16.309Z,99627.69
2022-10-21T19:44:50.429Z,99633.44
2022-10-21T19:48:57.523Z,99643.78
2022-10-21T19:52:59.478Z,99630.53
2022-10-21T19:57:01.414Z,99640.59
2022-10-21T20:01:09.813Z,99637.22
2022-10-21T20:05:11.786Z,99642.75
2022-10-21T20:09:17.149Z,99642.91
2022-10-21T20:17:40.822Z,99647.34
2022-10-21T20:21:44.702Z,99645.09
2022-10-21T20:26:44.760Z,99656.41
2022-10-21T20:31:05.810Z,99654.69
2022-10-21T20:35:09.817Z,99653.03
2022-10-21T20:39:12.481Z,99647.66
2022-10-21T20:49:50.739Z,99644.66
2022-10-21T20:54:01.566Z,99643.81
2022-10-21T20:58:03.939Z,99649.66
2022-10-21T21:02:13.283Z,99650.41
2022-10-21T21:06:30.517Z,99653.72
2022-10-21T21:10:34.636Z,99648.72
2022-10-21T21:14:36.535Z,99642.72
2022-10-21T21:18:39.649Z,99651.38
2022-10-21T21:22:41.917Z,99650.81
2022-10-21T21:26:43.998Z,99647.69
2022-10-21T21:30:54.503Z,99629.81
2022-10-21T21:35:02.305Z,99659.75
2022-10-21T21:39:07.715Z,99650.75
2022-10-21T21:43:09.603Z,99650.09
2022-10-21T21:47:14.250Z,99658.75
2022-10-21T21:51:16.221Z,99668.41
2022-10-21T21:55:18.132Z,99670.00
2022-10-21T21:59:20.059Z,99663.66
2022-10-21T22:03:21.894Z,99654.19
2022-10-21T22:07:23.751Z,99654.53
2022-10-21T22:11:27.893Z,99644.91
2022-10-21T22:15:47.108Z,99653.84
2022-10-21T22:19:53.651Z,99635.16
2022-10-21T22:23:55.903Z,99635.69
2022-10-21T22:27:57.768Z,99648.44
2022-10-21T22:31:59.814Z,99659.88
2022-10-21T22:36:01.941Z,99636.22
2022-10-21T22:40:04.262Z,99630.38
2022-10-21T22:44:06.103Z,99639.81
2022-10-21T22:48:08.033Z,99640.88
2022-10-21T22:52:10.417Z,99636.44
2022-10-21T22:56:12.278Z,99625.97
2022-10-21T23:00:14.570Z,99617.13
2022-10-21T23:04:16.382Z,99628.25
2022-10-21T23:08:18.440Z,99628.56
2022-10-21T23:12:20.339Z,99616.84
2022-10-21T23:16:22.150Z,99596.63
2022-10-21T23:20:23.971Z,99599.91
2022-10-21T23:24:25.742Z,99594.59
2022-10-21T23:28:27.564Z,99567.38
2022-10-21T23:32:29.314Z,99579.50
2022-10-21T23:36:31.319Z,99603.44
2022-10-21T23:40:33.119Z,99598.63
2022-10-21T23:44:34.997Z,99626.75
2022-10-21T23:48:37.616Z,99605.81
2022-10-21T23:52:39.516Z,99632.31
2022-10-21T23:56:41.492Z,99634.13
